createdAt,value
2022-07-27T00:00:50.636Z,18.50
2022-07-27T00:03:17.824Z,18.48
2022-07-27T00:05:44.788Z,18.45
2022-07-27T00:08:11.468Z,18.42
2022-07-27T00:10:38.524Z,18.38
2022-07-27T00:13:06.276Z,18.39
2022-07-27T00:15:36.124Z,18.38
2022-07-27T00:18:03.852Z,18.29
2022-07-27T00:20:32.067Z,18.29
2022-07-27T00:22:59.495Z,18.27
2022-07-27T00:25:27.637Z,18.25
2022-07-27T00:27:55.187Z,18.24
2022-07-27T00:30:21.934Z,18.17
2022-07-27T00:32:48.962Z,18.21
2022-07-27T00:35:15.854Z,18.10
2022-07-27T00:37:42.669Z,18.16
2022-07-27T00:40:10.448Z,18.13
2022-07-27T00:42:37.182Z,18.08
2022-07-27T00:45:05.274Z,18.08
2022-07-27T00:47:32.583Z,17.98
2022-07-27T00:49:59.640Z,18.04
2022-07-27T00:52:28.564Z,18.01
2022-07-27T00:54:55.855Z,17.99
2022-07-27T00:57:23.104Z,17.98
2022-07-27T00:59:49.803Z,17.95
2022-07-27T01:02:19.322Z,17.96
2022-07-27T01:04:47.388Z,17.94
2022-07-27T01:07:15.144Z,17.84
2022-07-27T01:09:58.211Z,17.91
2022-07-27T01:12:32.200Z,17.89
2022-07-27T01:15:00.468Z,17.90
2022-07-27T01:17:30.856Z,17.80
2022-07-27T01:19:59.053Z,17.87
2022-07-27T01:22:26.317Z,17.86
2022-07-27T01:24:53.205Z,17.84
2022-07-27T01:27:19.977Z,17.79
2022-07-27T01:29:47.465Z,17.73
2022-07-27T01:32:14.355Z,17.74
2022-07-27T01:34:41.069Z,17.73
2022-07-27T01:37:08.136Z,17.71
2022-07-27T01:39:34.910Z,17.67
2022-07-27T01:42:01.936Z,17.67
2022-07-27T01:44:28.944Z,17.58
2022-07-27T01:46:55.642Z,17.59
2022-07-27T01:49:22.471Z,17.59
2022-07-27T01:51:49.813Z,17.58
2022-07-27T01:54:16.525Z,17.56
2022-07-27T01:56:43.574Z,17.51
2022-07-27T01:59:16.914Z,17.47
2022-07-27T02:01:45.201Z,17.50
2022-07-27T02:04:12.303Z,17.47
2022-07-27T02:06:39.459Z,17.46
2022-07-27T02:09:06.677Z,17.44
2022-07-27T02:11:52.260Z,17.45
2022-07-27T02:14:21.250Z,17.44
2022-07-27T02:16:50.727Z,17.46
2022-07-27T02:19:18.275Z,17.45
2022-07-27T02:21:45.268Z,17.45
2022-07-27T02:24:12.195Z,17.45
2022-07-27T02:26:38.830Z,17.43
2022-07-27T02:29:05.636Z,17.34
2022-07-27T02:31:32.887Z,17.45
2022-07-27T02:34:00.562Z,17.45
2022-07-27T02:36:29.314Z,17.43
2022-07-27T02:38:57.446Z,17.50
2022-07-27T02:41:24.444Z,17.49
2022-07-27T02:43:51.208Z,17.72
2022-07-27T02:46:18.380Z,18.16
2022-07-27T02:48:45.293Z,18.91
2022-07-27T02:51:12.418Z,19.54
2022-07-27T02:53:39.324Z,19.81
2022-07-27T02:56:06.373Z,20.12
2022-07-27T02:58:33.169Z,20.43
2022-07-27T03:01:00.078Z,20.71
2022-07-27T03:03:36.116Z,20.85
2022-07-27T03:06:05.917Z,20.85
2022-07-27T03:08:32.739Z,20.62
2022-07-27T03:10:59.403Z,20.35
2022-07-27T03:13:26.758Z,20.08
2022-07-27T03:15:53.564Z,20.00
2022-07-27T03:18:21.180Z,19.86
2022-07-27T03:20:48.220Z,19.76
2022-07-27T03:23:15.233Z,19.69
2022-07-27T03:25:41.864Z,19.67
2022-07-27T03:28:08.894Z,19.67
2022-07-27T03:30:35.737Z,19.70
2022-07-27T03:33:02.441Z,19.87
2022-07-27T03:35:29.350Z,20.23
2022-07-27T03:37:56.360Z,20.48
2022-07-27T03:40:23.016Z,20.72
2022-07-27T03:42:50.194Z,20.74
2022-07-27T03:45:16.851Z,20.76
2022-07-27T03:47:43.554Z,20.94
2022-07-27T03:50:10.673Z,21.32
2022-07-27T03:52:37.397Z,21.89
2022-07-27T03:55:04.307Z,22.57
2022-07-27T03:57:31.420Z,23.27
2022-07-27T03:59:58.109Z,24.05
2022-07-27T04:02:24.869Z,24.73
2022-07-27T04:04:51.863Z,25.24
2022-07-27T04:07:18.592Z,25.70
2022-07-27T04:09:45.356Z,26.07
2022-07-27T04:12:14.551Z,26.22
2022-07-27T04:14:44.178Z,26.18
2022-07-27T04:17:10.935Z,26.24
2022-07-27T04:19:38.051Z,26.11
2022-07-27T04:22:04.693Z,25.91
2022-07-27T04:24:31.374Z,25.93
2022-07-27T04:26:58.323Z,25.83
2022-07-27T04:29:25.165Z,25.75
2022-07-27T04:31:52.212Z,25.58
2022-07-27T04:34:20.773Z,25.35
2022-07-27T04:36:47.434Z,25.04
2022-07-27T04:39:14.671Z,24.83
2022-07-27T04:41:42.113Z,24.48
2022-07-27T04:44:08.759Z,24.35
2022-07-27T04:46:35.473Z,24.25
2022-07-27T04:49:02.575Z,24.10
2022-07-27T04:51:34.352Z,23.93
2022-07-27T04:54:02.106Z,23.82
2022-07-27T04:56:29.364Z,23.68
2022-07-27T04:58:56.412Z,23.61
2022-07-27T05:01:23.416Z,23.55
2022-07-27T05:03:50.771Z,23.47
2022-07-27T05:06:17.865Z,23.44
2022-07-27T05:08:44.585Z,23.35
2022-07-27T05:11:11.867Z,23.33
2022-07-27T05:13:40.550Z,23.28
2022-07-27T05:16:11.904Z,23.31
2022-07-27T05:18:39.823Z,23.35
2022-07-27T05:21:07.811Z,23.38
2022-07-27T05:23:34.705Z,23.40
2022-07-27T05:26:01.941Z,23.45
2022-07-27T05:28:29.622Z,23.37
2022-07-27T05:30:56.650Z,23.45
2022-07-27T05:33:23.756Z,23.44
2022-07-27T05:35:50.852Z,23.47
2022-07-27T05:50:00.526Z,24.70
2022-07-27T05:52:27.513Z,24.70
2022-07-27T05:54:54.415Z,24.30
2022-07-27T05:57:21.308Z,24.42
2022-07-27T05:59:48.540Z,24.44
2022-07-27T06:02:15.152Z,24.45
2022-07-27T06:04:42.051Z,24.54
2022-07-27T06:07:27.448Z,24.57
2022-07-27T06:09:54.397Z,24.72
2022-07-27T06:12:21.101Z,24.79
2022-07-27T06:14:56.883Z,24.84
2022-07-27T06:17:23.654Z,24.93
2022-07-27T06:19:50.447Z,24.93
2022-07-27T06:22:18.573Z,24.93
2022-07-27T06:24:45.199Z,24.98
2022-07-27T06:27:11.835Z,25.02
2022-07-27T06:29:38.740Z,25.05
2022-07-27T06:32:05.935Z,25.03
2022-07-27T06:34:38.243Z,25.03
2022-07-27T06:37:09.258Z,25.01
2022-07-27T06:39:35.968Z,25.07
2022-07-27T06:42:03.554Z,25.11
2022-07-27T06:44:30.450Z,25.11
2022-07-27T06:46:57.152Z,25.13
2022-07-27T06:49:23.861Z,25.09
2022-07-27T06:51:50.852Z,25.13
2022-07-27T06:54:17.831Z,25.22
2022-07-27T06:56:44.762Z,25.22
2022-07-27T06:59:11.973Z,25.29
2022-07-27T07:01:38.900Z,25.29
2022-07-27T07:04:05.640Z,25.32
2022-07-27T07:06:32.928Z,25.33
2022-07-27T07:09:00.549Z,25.35
2022-07-27T07:11:27.406Z,25.37
2022-07-27T07:13:54.346Z,25.41
2022-07-27T07:16:21.394Z,25.46
2022-07-27T07:18:52.237Z,25.56
2022-07-27T07:21:19.566Z,25.64
2022-07-27T07:23:46.396Z,25.71
2022-07-27T07:26:13.087Z,25.85
2022-07-27T07:28:40.230Z,25.95
2022-07-27T07:31:07.098Z,26.02
2022-07-27T07:33:33.800Z,26.09
2022-07-27T07:36:12.916Z,26.18
2022-07-27T07:38:42.576Z,26.20
2022-07-27T07:41:10.026Z,26.19
2022-07-27T07:43:38.783Z,26.26
2022-07-27T07:46:06.130Z,26.29
2022-07-27T07:48:33.143Z,26.31
2022-07-27T07:50:59.901Z,26.34
2022-07-27T07:53:27.109Z,26.39
2022-07-27T07:55:56.644Z,26.45
2022-07-27T07:58:23.429Z,26.52
2022-07-27T08:00:50.252Z,26.61
2022-07-27T08:03:18.549Z,26.56
2022-07-27T08:05:45.266Z,26.53
2022-07-27T08:08:12.143Z,26.53
2022-07-27T08:10:39.196Z,26.55
2022-07-27T08:13:05.899Z,26.58
2022-07-27T08:15:35.768Z,26.62
2022-07-27T08:18:06.912Z,26.61
2022-07-27T08:20:34.569Z,26.68
2022-07-27T08:23:02.200Z,26.66
2022-07-27T08:25:29.649Z,26.69
2022-07-27T08:27:56.736Z,26.73
2022-07-27T08:30:24.408Z,26.78
2022-07-27T08:32:58.574Z,26.83
2022-07-27T08:35:25.934Z,26.87
2022-07-27T08:37:53.293Z,26.91
2022-07-27T08:43:08.882Z,26.96
2022-07-27T08:45:37.259Z,27.04
2022-07-27T08:48:04.926Z,27.00
2022-07-27T08:50:34.675Z,27.07
2022-07-27T08:53:11.112Z,27.19
2022-07-27T08:55:40.837Z,27.24
2022-07-27T08:58:08.551Z,27.19
2022-07-27T09:00:38.262Z,27.26
2022-07-27T09:03:05.791Z,27.27
2022-07-27T09:05:36.136Z,27.34
2022-07-27T09:08:16.236Z,27.38
2022-07-27T09:10:44.099Z,27.45
2022-07-27T09:13:21.567Z,27.54
2022-07-27T09:18:39.403Z,27.81
2022-07-27T09:21:17.521Z,27.83
2022-07-27T09:24:18.042Z,27.94
2022-07-27T09:27:03.749Z,28.02
2022-07-27T09:29:35.005Z,28.05
2022-07-27T09:32:14.174Z,28.07
2022-07-27T09:34:41.002Z,28.21
2022-07-27T09:37:08.512Z,28.25
2022-07-27T09:39:35.172Z,28.33
2022-07-27T09:42:02.840Z,28.36
2022-07-27T09:44:43.787Z,28.40
2022-07-27T09:47:20.821Z,28.52
2022-07-27T09:49:47.948Z,28.60
2022-07-27T09:52:30.396Z,28.49
2022-07-27T09:55:05.886Z,28.58
2022-07-27T09:57:56.542Z,28.64
2022-07-27T10:00:25.756Z,28.61
2022-07-27T10:02:53.887Z,28.43
2022-07-27T10:05:24.277Z,28.34
2022-07-27T10:07:54.709Z,28.29
2022-07-27T10:10:23.061Z,28.19
2022-07-27T10:12:54.668Z,28.08
2022-07-27T10:15:24.053Z,27.98
2022-07-27T10:18:06.823Z,27.96
2022-07-27T10:20:38.338Z,27.96
2022-07-27T10:23:05.237Z,27.91
2022-07-27T10:25:38.008Z,27.85
2022-07-27T10:28:16.461Z,27.88
2022-07-27T10:30:44.755Z,27.84
2022-07-27T10:33:37.943Z,27.75
2022-07-27T10:36:05.200Z,27.77
2022-07-27T10:38:47.189Z,27.68
2022-07-27T10:41:28.877Z,27.63
2022-07-27T10:44:14.933Z,27.66
2022-07-27T10:46:52.640Z,27.69
2022-07-27T10:49:22.282Z,27.75
2022-07-27T10:51:51.186Z,27.76
2022-07-27T10:54:22.501Z,27.86
2022-07-27T10:56:51.332Z,28.00
2022-07-27T11:02:41.455Z,28.17
2022-07-27T11:05:32.773Z,28.28
2022-07-27T11:08:36.271Z,28.36
2022-07-27T11:10:48.077Z,28.37
2022-07-27T11:13:18.475Z,28.41
2022-07-27T11:16:22.545Z,28.38
2022-07-27T11:19:14.121Z,28.56
2022-07-27T11:21:41.459Z,28.64
2022-07-27T11:24:15.075Z,28.52
2022-07-27T11:26:44.911Z,28.67
2022-07-27T11:29:14.307Z,28.72
2022-07-27T11:31:59.192Z,28.76
2022-07-27T11:34:36.249Z,28.81
2022-07-27T11:37:11.855Z,28.82
2022-07-27T11:42:37.209Z,28.74
2022-07-27T11:45:05.712Z,28.78
2022-07-27T11:47:34.131Z,28.69
2022-07-27T11:50:07.309Z,28.67
2022-07-27T11:52:34.703Z,28.61
2022-07-27T11:55:01.620Z,28.44
2022-07-27T11:57:33.130Z,28.38
2022-07-27T12:00:00.277Z,28.25
2022-07-27T12:02:27.485Z,28.09
2022-07-27T12:05:00.496Z,28.06
2022-07-27T12:07:31.669Z,27.89
2022-07-27T12:10:02.101Z,27.68
2022-07-27T12:12:30.904Z,27.49
2022-07-27T12:15:16.592Z,27.32
2022-07-27T12:17:57.243Z,27.12
2022-07-27T12:20:33.349Z,26.91
2022-07-27T12:23:06.533Z,26.66
2022-07-27T12:25:34.737Z,26.38
2022-07-27T12:28:12.613Z,26.08
2022-07-27T12:30:51.620Z,25.90
2022-07-27T12:33:29.925Z,25.69
2022-07-27T12:35:58.238Z,25.56
2022-07-27T12:38:36.303Z,25.28
2022-07-27T12:41:03.171Z,25.20
2022-07-27T12:43:30.298Z,25.05
2022-07-27T12:45:57.641Z,24.95
2022-07-27T12:48:26.999Z,24.81
2022-07-27T12:50:59.974Z,24.87
2022-07-27T12:53:26.682Z,24.83
2022-07-27T12:55:56.539Z,24.73
2022-07-27T12:58:23.814Z,24.81
2022-07-27T13:00:50.549Z,24.79
2022-07-27T13:03:17.297Z,24.71
2022-07-27T13:05:44.651Z,24.69
2022-07-27T13:08:11.511Z,24.66
2022-07-27T13:10:39.519Z,24.65
2022-07-27T13:13:08.592Z,24.70
2022-07-27T13:15:35.705Z,24.76
2022-07-27T13:18:02.533Z,24.71
2022-07-27T13:20:29.809Z,24.76
2022-07-27T13:22:56.618Z,24.73
2022-07-27T13:25:23.387Z,24.71
2022-07-27T13:27:50.574Z,24.70
2022-07-27T13:30:18.564Z,24.67
2022-07-27T13:32:46.899Z,24.69
2022-07-27T13:35:14.965Z,24.72
2022-07-27T13:37:41.993Z,24.74
2022-07-27T13:40:09.967Z,24.67
2022-07-27T13:42:37.533Z,24.75
2022-07-27T13:45:11.170Z,24.69
2022-07-27T13:47:40.983Z,24.76
2022-07-27T13:50:17.067Z,24.73
2022-07-27T13:52:47.304Z,24.64
2022-07-27T13:55:15.732Z,24.63
2022-07-27T13:57:42.928Z,24.59
2022-07-27T14:00:10.677Z,24.55
2022-07-27T14:02:37.912Z,24.50
2022-07-27T14:05:06.092Z,24.43
2022-07-27T14:07:33.366Z,24.41
2022-07-27T14:10:19.088Z,24.39
2022-07-27T14:12:45.990Z,24.14
2022-07-27T14:15:13.132Z,24.34
2022-07-27T14:17:39.812Z,24.33
2022-07-27T14:20:07.414Z,24.32
2022-07-27T14:22:34.626Z,24.27
2022-07-27T14:25:01.310Z,24.21
2022-07-27T14:27:36.270Z,24.15
2022-07-27T14:30:06.943Z,24.18
2022-07-27T14:32:34.554Z,24.22
2022-07-27T14:35:01.496Z,24.21
2022-07-27T14:37:28.948Z,24.22
2022-07-27T14:39:55.740Z,24.20
2022-07-27T14:42:24.077Z,24.24
2022-07-27T14:44:51.272Z,24.19
2022-07-27T14:47:18.709Z,24.05
2022-07-27T14:49:45.589Z,24.05
2022-07-27T14:52:15.648Z,24.02
2022-07-27T14:54:44.023Z,23.94
2022-07-27T14:57:11.034Z,23.89
2022-07-27T14:59:38.785Z,23.83
2022-07-27T15:02:06.078Z,23.78
2022-07-27T15:04:33.183Z,23.68
2022-07-27T15:07:00.795Z,23.69
2022-07-27T15:09:30.291Z,23.64
2022-07-27T15:11:58.021Z,23.57
2022-07-27T15:14:26.113Z,23.52
2022-07-27T15:16:54.545Z,23.46
2022-07-27T15:19:21.677Z,23.40
2022-07-27T15:21:48.800Z,23.33
2022-07-27T15:24:16.003Z,23.28
2022-07-27T15:26:42.919Z,23.25
2022-07-27T15:29:14.909Z,23.22
2022-07-27T15:31:42.966Z,23.18
2022-07-27T15:34:10.124Z,23.14
2022-07-27T15:36:43.723Z,23.11
2022-07-27T15:39:14.355Z,23.10
2022-07-27T15:41:41.311Z,23.04
2022-07-27T15:44:08.335Z,22.97
2022-07-27T15:46:35.511Z,23.01
2022-07-27T15:49:02.476Z,23.03
2022-07-27T15:51:29.493Z,23.01
2022-07-27T15:53:57.246Z,22.94
2022-07-27T15:56:25.144Z,22.92
2022-07-27T15:58:51.992Z,22.91
2022-07-27T16:01:20.821Z,22.95
2022-07-27T16:03:49.885Z,22.93
2022-07-27T16:06:19.052Z,22.88
2022-07-27T16:08:46.350Z,22.93
2022-07-27T16:11:13.412Z,22.93
2022-07-27T16:13:40.203Z,22.91
2022-07-27T16:16:22.290Z,22.91
2022-07-27T16:18:51.235Z,22.91
2022-07-27T16:21:18.867Z,22.88
2022-07-27T16:23:45.750Z,22.86
2022-07-27T16:26:12.800Z,22.83
2022-07-27T16:28:43.021Z,22.77
2022-07-27T16:31:13.703Z,22.84
2022-07-27T16:33:44.092Z,22.87
2022-07-27T16:36:11.561Z,22.86
2022-07-27T16:38:49.927Z,22.84
2022-07-27T16:41:19.902Z,22.85
2022-07-27T16:43:46.926Z,22.76
2022-07-27T16:46:14.487Z,22.72
2022-07-27T16:48:43.219Z,22.78
2022-07-27T16:51:12.590Z,22.78
2022-07-27T16:53:41.239Z,22.80
2022-07-27T16:56:09.208Z,22.80
2022-07-27T16:58:36.200Z,22.79
2022-07-27T17:01:03.505Z,22.76
2022-07-27T17:03:30.787Z,22.75
2022-07-27T17:06:00.757Z,22.68
2022-07-27T17:08:30.626Z,22.68
2022-07-27T17:10:57.335Z,22.69
2022-07-27T17:13:24.035Z,22.59
2022-07-27T17:16:04.904Z,22.67
2022-07-27T17:18:38.905Z,22.64
2022-07-27T17:21:07.451Z,22.56
2022-07-27T17:23:38.092Z,22.57
2022-07-27T17:26:09.290Z,22.51
2022-07-27T17:28:39.313Z,22.50
2022-07-27T17:31:08.941Z,22.45
2022-07-27T17:33:36.118Z,22.41
2022-07-27T17:36:02.970Z,22.34
2022-07-27T17:38:29.739Z,22.36
2022-07-27T17:40:56.984Z,22.30
2022-07-27T17:43:23.742Z,22.27
2022-07-27T17:45:50.755Z,22.23
2022-07-27T17:48:17.998Z,22.18
2022-07-27T17:50:44.696Z,22.19
2022-07-27T17:53:11.335Z,22.15
2022-07-27T17:55:38.513Z,22.13
2022-07-27T17:58:05.190Z,22.12
2022-07-27T18:00:31.975Z,22.08
2022-07-27T18:02:59.156Z,21.98
2022-07-27T18:05:25.899Z,21.99
2022-07-27T18:07:53.862Z,22.02
2022-07-27T18:10:21.044Z,21.97
2022-07-27T18:12:47.790Z,21.97
2022-07-27T18:15:33.606Z,21.95
2022-07-27T18:18:00.975Z,21.92
2022-07-27T18:20:27.847Z,21.89
2022-07-27T18:22:54.608Z,21.85
2022-07-27T18:25:22.027Z,21.81
2022-07-27T18:27:50.144Z,21.78
2022-07-27T18:30:17.660Z,21.75
2022-07-27T18:32:45.539Z,21.73
2022-07-27T18:35:12.882Z,21.70
2022-07-27T18:37:39.668Z,21.59
2022-07-27T18:40:09.078Z,21.64
2022-07-27T18:42:36.350Z,21.61
2022-07-27T18:45:03.513Z,21.53
2022-07-27T18:47:30.443Z,21.55
2022-07-27T18:49:57.142Z,21.51
2022-07-27T18:52:23.993Z,21.47
2022-07-27T18:54:51.044Z,21.43
2022-07-27T18:57:19.430Z,21.33
2022-07-27T18:59:47.971Z,21.35
2022-07-27T19:02:17.947Z,21.32
2022-07-27T19:04:44.783Z,21.29
2022-07-27T19:07:13.274Z,21.24
2022-07-27T19:09:42.862Z,21.22
2022-07-27T19:12:10.025Z,21.20
2022-07-27T19:14:37.100Z,21.05
2022-07-27T19:17:04.512Z,21.06
2022-07-27T19:19:31.537Z,21.09
2022-07-27T19:21:58.617Z,21.06
2022-07-27T19:24:25.754Z,21.01
2022-07-27T19:26:52.886Z,20.98
2022-07-27T19:29:21.286Z,20.95
2022-07-27T19:31:48.738Z,20.85
2022-07-27T19:34:15.467Z,20.87
2022-07-27T19:36:42.247Z,20.78
2022-07-27T19:39:09.309Z,20.75
2022-07-27T19:41:36.108Z,20.63
2022-07-27T19:44:04.719Z,20.68
2022-07-27T19:46:31.744Z,20.65
2022-07-27T19:48:58.785Z,20.60
2022-07-27T19:51:25.625Z,20.57
2022-07-27T19:53:52.671Z,20.45
2022-07-27T19:56:19.418Z,20.48
2022-07-27T19:58:46.457Z,20.42
2022-07-27T20:01:13.723Z,20.45
2022-07-27T20:03:51.997Z,20.42
2022-07-27T20:06:21.300Z,20.42
2022-07-27T20:08:48.598Z,20.41
2022-07-27T20:11:15.300Z,20.31
2022-07-27T20:13:42.151Z,20.29
2022-07-27T20:16:09.184Z,20.32
2022-07-27T20:18:37.561Z,20.30
2022-07-27T20:21:04.422Z,20.22
2022-07-27T20:23:49.432Z,20.22
2022-07-27T20:26:16.194Z,20.25
2022-07-27T20:28:42.852Z,20.20
2022-07-27T20:31:09.916Z,20.10
2022-07-27T20:33:36.971Z,20.13
2022-07-27T20:36:05.024Z,20.10
2022-07-27T20:38:32.034Z,20.07
2022-07-27T20:40:59.409Z,20.05
2022-07-27T20:43:28.917Z,19.98
2022-07-27T20:45:56.360Z,19.97
2022-07-27T20:48:23.251Z,19.94
2022-07-27T20:50:49.967Z,19.91
2022-07-27T20:53:20.256Z,19.92
2022-07-27T20:55:48.101Z,19.95
2022-07-27T20:58:15.056Z,19.92
2022-07-27T21:00:42.392Z,19.90
2022-07-27T21:03:09.185Z,19.87
2022-07-27T21:05:35.869Z,19.78
2022-07-27T21:08:02.856Z,19.82
2022-07-27T21:10:29.575Z,19.76
2022-07-27T21:12:57.011Z,19.78
2022-07-27T21:15:34.016Z,19.77
2022-07-27T21:18:01.768Z,19.68
2022-07-27T21:20:29.064Z,19.74
2022-07-27T21:23:14.951Z,19.74
2022-07-27T21:25:43.978Z,19.73
2022-07-27T21:28:12.343Z,19.70
2022-07-27T21:30:44.395Z,19.70
2022-07-27T21:33:11.209Z,19.69
2022-07-27T21:35:37.970Z,19.60
2022-07-27T21:38:06.135Z,19.63
2022-07-27T21:40:32.896Z,19.63
2022-07-27T21:43:00.735Z,19.60
2022-07-27T21:45:27.878Z,19.55
2022-07-27T21:47:54.602Z,19.60
2022-07-27T21:50:21.453Z,19.61
2022-07-27T21:52:48.444Z,19.60
2022-07-27T21:55:22.761Z,19.59
2022-07-27T21:57:51.141Z,19.52
2022-07-27T22:00:23.846Z,19.49
2022-07-27T22:02:54.962Z,19.47
2022-07-27T22:05:22.819Z,19.44
2022-07-27T22:07:52.493Z,19.47
2022-07-27T22:10:19.727Z,19.47
2022-07-27T22:12:46.573Z,19.32
2022-07-27T22:15:13.194Z,19.40
2022-07-27T22:17:49.927Z,19.36
2022-07-27T22:20:19.288Z,19.31
2022-07-27T22:22:47.185Z,19.30
2022-07-27T22:25:14.727Z,19.23
2022-07-27T22:27:41.510Z,19.27
2022-07-27T22:30:09.274Z,19.22
2022-07-27T22:32:36.170Z,19.24
2022-07-27T22:35:03.946Z,19.22
2022-07-27T22:37:30.907Z,19.18
2022-07-27T22:39:57.547Z,19.17
2022-07-27T22:42:24.297Z,19.12
2022-07-27T22:44:51.261Z,19.04
2022-07-27T22:47:18.303Z,19.08
2022-07-27T22:49:45.204Z,19.08
2022-07-27T22:52:12.413Z,19.08
2022-07-27T22:54:39.250Z,19.06
2022-07-27T22:57:06.719Z,18.99
2022-07-27T22:59:34.827Z,19.03
2022-07-27T23:02:01.771Z,18.94
2022-07-27T23:04:28.640Z,18.94
2022-07-27T23:06:55.915Z,18.85
2022-07-27T23:09:23.235Z,18.91
2022-07-27T23:11:50.694Z,18.90
2022-07-27T23:14:18.119Z,18.92
2022-07-27T23:16:45.229Z,18.90
2022-07-27T23:19:11.922Z,18.82
2022-07-27T23:21:39.699Z,18.89
2022-07-27T23:24:10.138Z,18.86
2022-07-27T23:26:38.031Z,18.84
2022-07-27T23:29:05.076Z,18.85
2022-07-27T23:31:32.023Z,18.76
2022-07-27T23:33:58.889Z,18.81
2022-07-27T23:36:25.886Z,18.80
2022-07-27T23:38:52.635Z,18.77
2022-07-27T23:41:19.665Z,18.73
2022-07-27T23:43:46.569Z,18.72
2022-07-27T23:46:13.490Z,18.71
2022-07-27T23:48:40.284Z,18.69
2022-07-27T23:51:08.881Z,18.69
2022-07-27T23:53:35.718Z,18.67
2022-07-27T23:56:02.461Z,18.65
2022-07-27T23:58:29.724Z,18.65
